sensor_id;sensor_type;location;lat;lon;timestamp;pressure;altitude;pressure_sealevel;temperature;humidity
60267;BME280;46125;61.360;-149.532;2023-09-12T00:00:57;98204.22;;;13.72;49.86
60267;BME280;46125;61.360;-149.532;2023-09-12T00:03:25;98206.99;;;14.58;47.12
60267;BME280;46125;61.360;-149.532;2023-09-12T00:05:54;98207.96;;;12.47;51.55
60267;BME280;46125;61.360;-149.532;2023-09-12T00:08:23;98212.00;;;12.68;50.08
60267;BME280;46125;61.360;-149.532;2023-09-12T00:11:00;98208.58;;;13.94;51.01
60267;BME280;46125;61.360;-149.532;2023-09-12T00:13:30;98209.01;;;14.66;50.84
60267;BME280;46125;61.360;-149.532;2023-09-12T00:15:59;98210.87;;;14.96;48.85
60267;BME280;46125;61.360;-149.532;2023-09-12T00:18:27;98213.49;;;14.04;50.97
60267;BME280;46125;61.360;-149.532;2023-09-12T00:20:56;98214.25;;;15.47;47.26
60267;BME280;46125;61.360;-149.532;2023-09-12T00:23:25;98216.48;;;12.48;49.93
60267;BME280;46125;61.360;-149.532;2023-09-12T00:25:59;98211.53;;;13.29;49.73
60267;BME280;46125;61.360;-149.532;2023-09-12T00:28:27;98211.03;;;13.11;49.95
60267;BME280;46125;61.360;-149.532;2023-09-12T00:30:55;98213.83;;;13.42;51.20
60267;BME280;46125;61.360;-149.532;2023-09-12T00:33:24;98212.98;;;13.96;51.63
60267;BME280;46125;61.360;-149.532;2023-09-12T00:35:52;98214.24;;;12.41;55.50
60267;BME280;46125;61.360;-149.532;2023-09-12T00:38:21;98213.77;;;12.71;55.10
60267;BME280;46125;61.360;-149.532;2023-09-12T00:40:49;98217.03;;;12.72;51.70
60267;BME280;46125;61.360;-149.532;2023-09-12T00:43:23;98212.41;;;14.41;50.51
60267;BME280;46125;61.360;-149.532;2023-09-12T00:45:51;98215.21;;;15.19;49.15
60267;BME280;46125;61.360;-149.532;2023-09-12T00:48:20;98223.65;;;12.18;54.51
60267;BME280;46125;61.360;-149.532;2023-09-12T00:50:50;98218.82;;;12.83;52.48
60267;BME280;46125;61.360;-149.532;2023-09-12T00:53:24;98215.45;;;13.19;52.26
60267;BME280;46125;61.360;-149.532;2023-09-12T00:55:56;98215.34;;;13.75;48.13
60267;BME280;46125;61.360;-149.532;2023-09-12T00:58:30;98213.54;;;13.78;49.82
60267;BME280;46125;61.360;-149.532;2023-09-12T01:00:59;98214.05;;;14.11;47.94
60267;BME280;46125;61.360;-149.532;2023-09-12T01:03:27;98214.02;;;14.12;48.75
60267;BME280;46125;61.360;-149.532;2023-09-12T01:05:58;98215.93;;;13.13;50.82
60267;BME280;46125;61.360;-149.532;2023-09-12T01:08:27;98221.20;;;12.61;54.92
60267;BME280;46125;61.360;-149.532;2023-09-12T01:10:56;98223.70;;;11.53;57.48
60267;BME280;46125;61.360;-149.532;2023-09-12T01:13:25;98220.18;;;13.19;55.52
60267;BME280;46125;61.360;-149.532;2023-09-12T01:15:53;98221.40;;;13.13;54.72
60267;BME280;46125;61.360;-149.532;2023-09-12T01:18:22;98217.37;;;12.81;48.76
60267;BME280;46125;61.360;-149.532;2023-09-12T01:21:12;98215.31;;;13.82;47.84
60267;BME280;46125;61.360;-149.532;2023-09-12T01:24:00;98220.05;;;13.59;52.21
60267;BME280;46125;61.360;-149.532;2023-09-12T01:26:43;98223.51;;;12.83;51.80
60267;BME280;46125;61.360;-149.532;2023-09-12T01:29:15;98224.22;;;13.27;50.69
60267;BME280;46125;61.360;-149.532;2023-09-12T01:31:46;98224.36;;;13.48;51.02
60267;BME280;46125;61.360;-149.532;2023-09-12T01:34:15;98226.91;;;13.54;50.10
60267;BME280;46125;61.360;-149.532;2023-09-12T01:36:44;98226.55;;;13.82;50.39
60267;BME280;46125;61.360;-149.532;2023-09-12T01:39:12;98227.51;;;14.10;51.71
60267;BME280;46125;61.360;-149.532;2023-09-12T01:41:43;98229.64;;;13.70;53.87
60267;BME280;46125;61.360;-149.532;2023-09-12T01:44:19;98227.38;;;13.08;51.72
60267;BME280;46125;61.360;-149.532;2023-09-12T01:46:54;98231.74;;;14.46;50.98
60267;BME280;46125;61.360;-149.532;2023-09-12T01:49:25;98230.65;;;13.66;52.90
60267;BME280;46125;61.360;-149.532;2023-09-12T01:52:00;98230.61;;;14.47;48.31
60267;BME280;46125;61.360;-149.532;2023-09-12T01:54:29;98232.46;;;14.14;50.47
60267;BME280;46125;61.360;-149.532;2023-09-12T01:56:58;98229.06;;;14.40;50.64
60267;BME280;46125;61.360;-149.532;2023-09-12T01:59:27;98231.29;;;13.79;51.50
60267;BME280;46125;61.360;-149.532;2023-09-12T02:01:56;98229.34;;;14.22;52.89
60267;BME280;46125;61.360;-149.532;2023-09-12T02:04:24;98232.28;;;13.22;52.99
60267;BME280;46125;61.360;-149.532;2023-09-12T02:06:53;98237.78;;;11.53;54.50
60267;BME280;46125;61.360;-149.532;2023-09-12T02:09:21;98235.91;;;13.57;55.03
60267;BME280;46125;61.360;-149.532;2023-09-12T02:11:50;98236.92;;;14.63;49.81
60267;BME280;46125;61.360;-149.532;2023-09-12T02:14:20;98235.25;;;15.24;48.27
60267;BME280;46125;61.360;-149.532;2023-09-12T02:16:47;98236.91;;;15.29;48.14
60267;BME280;46125;61.360;-149.532;2023-09-12T02:19:17;98237.67;;;15.42;48.22
60267;BME280;46125;61.360;-149.532;2023-09-12T02:21:45;98235.25;;;14.23;49.22
60267;BME280;46125;61.360;-149.532;2023-09-12T02:24:14;98232.93;;;15.29;49.15
60267;BME280;46125;61.360;-149.532;2023-09-12T02:26:43;98237.62;;;15.38;47.34
60267;BME280;46125;61.360;-149.532;2023-09-12T02:29:12;98238.66;;;14.00;50.00
60267;BME280;46125;61.360;-149.532;2023-09-12T02:31:40;98236.23;;;14.91;51.60
60267;BME280;46125;61.360;-149.532;2023-09-12T02:34:08;98235.06;;;14.87;50.59
60267;BME280;46125;61.360;-149.532;2023-09-12T02:36:37;98232.89;;;14.66;51.66
60267;BME280;46125;61.360;-149.532;2023-09-12T02:39:05;98232.82;;;14.60;51.86
60267;BME280;46125;61.360;-149.532;2023-09-12T02:41:34;98235.05;;;15.28;49.73
60267;BME280;46125;61.360;-149.532;2023-09-12T02:44:07;98232.86;;;14.97;48.66
60267;BME280;46125;61.360;-149.532;2023-09-12T02:46:37;98233.23;;;15.20;47.57
60267;BME280;46125;61.360;-149.532;2023-09-12T02:49:05;98231.72;;;14.07;50.09
60267;BME280;46125;61.360;-149.532;2023-09-12T02:51:36;98241.81;;;12.66;52.94
60267;BME280;46125;61.360;-149.532;2023-09-12T02:54:11;98244.21;;;11.83;54.53
60267;BME280;46125;61.360;-149.532;2023-09-12T02:56:39;98243.11;;;13.36;55.19
60267;BME280;46125;61.360;-149.532;2023-09-12T02:59:08;98246.08;;;12.76;53.33
60267;BME280;46125;61.360;-149.532;2023-09-12T03:01:36;98244.16;;;13.13;51.25
60267;BME280;46125;61.360;-149.532;2023-09-12T03:04:05;98243.42;;;11.70;54.89
60267;BME280;46125;61.360;-149.532;2023-09-12T03:06:33;98241.16;;;13.13;54.18
60267;BME280;46125;61.360;-149.532;2023-09-12T03:09:02;98240.98;;;13.25;52.99
60267;BME280;46125;61.360;-149.532;2023-09-12T03:11:30;98242.14;;;13.14;51.48
60267;BME280;46125;61.360;-149.532;2023-09-12T03:13:58;98249.15;;;12.88;51.60
60267;BME280;46125;61.360;-149.532;2023-09-12T03:16:27;98247.07;;;12.26;54.23
60267;BME280;46125;61.360;-149.532;2023-09-12T03:18:55;98248.37;;;12.10;54.13
60267;BME280;46125;61.360;-149.532;2023-09-12T03:21:24;98247.41;;;13.03;52.95
60267;BME280;46125;61.360;-149.532;2023-09-12T03:23:57;98242.36;;;13.36;51.50
60267;BME280;46125;61.360;-149.532;2023-09-12T03:26:26;98241.72;;;13.29;51.43
60267;BME280;46125;61.360;-149.532;2023-09-12T03:28:55;98245.58;;;13.13;52.07
60267;BME280;46125;61.360;-149.532;2023-09-12T03:31:34;98242.32;;;13.22;51.58
60267;BME280;46125;61.360;-149.532;2023-09-12T03:34:03;98245.19;;;13.18;50.23
60267;BME280;46125;61.360;-149.532;2023-09-12T03:36:37;98246.23;;;13.60;49.88
60267;BME280;46125;61.360;-149.532;2023-09-12T03:39:06;98246.72;;;13.79;49.98
60267;BME280;46125;61.360;-149.532;2023-09-12T03:41:35;98249.26;;;13.42;50.13
60267;BME280;46125;61.360;-149.532;2023-09-12T03:44:04;98246.88;;;13.59;50.23
60267;BME280;46125;61.360;-149.532;2023-09-12T03:46:33;98256.01;;;12.98;51.14
60267;BME280;46125;61.360;-149.532;2023-09-12T03:49:02;98254.31;;;13.10;50.60
60267;BME280;46125;61.360;-149.532;2023-09-12T03:51:31;98257.05;;;12.96;50.79
60267;BME280;46125;61.360;-149.532;2023-09-12T03:53:59;98256.26;;;13.16;50.81
60267;BME280;46125;61.360;-149.532;2023-09-12T03:56:28;98257.29;;;12.49;52.26
60267;BME280;46125;61.360;-149.532;2023-09-12T03:58:57;98255.67;;;12.79;51.79
60267;BME280;46125;61.360;-149.532;2023-09-12T04:01:31;98256.72;;;12.98;51.20
60267;BME280;46125;61.360;-149.532;2023-09-12T04:03:59;98256.96;;;13.06;50.98
60267;BME280;46125;61.360;-149.532;2023-09-12T04:06:28;98260.24;;;13.08;50.96
60267;BME280;46125;61.360;-149.532;2023-09-12T04:08:56;98262.12;;;13.06;51.20
60267;BME280;46125;61.360;-149.532;2023-09-12T04:11:36;98262.92;;;12.96;51.26
60267;BME280;46125;61.360;-149.532;2023-09-12T04:14:04;98264.56;;;12.44;53.18
60267;BME280;46125;61.360;-149.532;2023-09-12T04:16:39;98264.76;;;12.66;52.23
60267;BME280;46125;61.360;-149.532;2023-09-12T04:19:08;98265.49;;;11.53;54.59
60267;BME280;46125;61.360;-149.532;2023-09-12T04:21:36;98267.55;;;12.28;52.61
60267;BME280;46125;61.360;-149.532;2023-09-12T04:24:05;98270.09;;;12.25;52.34
60267;BME280;46125;61.360;-149.532;2023-09-12T04:26:34;98271.37;;;12.15;52.07
60267;BME280;46125;61.360;-149.532;2023-09-12T04:29:03;98271.89;;;12.40;52.05
60267;BME280;46125;61.360;-149.532;2023-09-12T04:31:31;98273.44;;;12.17;52.47
60267;BME280;46125;61.360;-149.532;2023-09-12T04:34:06;98275.63;;;11.94;53.57
60267;BME280;46125;61.360;-149.532;2023-09-12T04:36:34;98276.39;;;11.84;52.95
60267;BME280;46125;61.360;-149.532;2023-09-12T04:39:04;98279.70;;;11.62;53.20
60267;BME280;46125;61.360;-149.532;2023-09-12T04:41:38;98280.12;;;11.61;54.22
60267;BME280;46125;61.360;-149.532;2023-09-12T04:44:06;98286.12;;;11.50;53.49
60267;BME280;46125;61.360;-149.532;2023-09-12T04:46:34;98289.86;;;11.61;53.86
60267;BME280;46125;61.360;-149.532;2023-09-12T04:49:03;98290.87;;;11.46;54.48
60267;BME280;46125;61.360;-149.532;2023-09-12T04:51:36;98289.50;;;11.11;54.77
60267;BME280;46125;61.360;-149.532;2023-09-12T04:54:06;98291.15;;;10.51;55.10
60267;BME280;46125;61.360;-149.532;2023-09-12T04:56:40;98294.72;;;11.22;53.38
60267;BME280;46125;61.360;-149.532;2023-09-12T04:59:08;98298.28;;;10.91;52.57
60267;BME280;46125;61.360;-149.532;2023-09-12T05:01:37;98301.50;;;11.04;52.23
60267;BME280;46125;61.360;-149.532;2023-09-12T05:04:05;98301.26;;;10.96;52.55
60267;BME280;46125;61.360;-149.532;2023-09-12T05:06:35;98299.53;;;10.88;52.24
60267;BME280;46125;61.360;-149.532;2023-09-12T05:09:03;98300.63;;;10.97;51.70
60267;BME280;46125;61.360;-149.532;2023-09-12T05:11:31;98302.29;;;10.65;51.68
60267;BME280;46125;61.360;-149.532;2023-09-12T05:14:06;98302.69;;;10.76;51.89
60267;BME280;46125;61.360;-149.532;2023-09-12T05:16:34;98306.47;;;10.50;52.67
60267;BME280;46125;61.360;-149.532;2023-09-12T05:19:03;98306.91;;;10.48;52.50
60267;BME280;46125;61.360;-149.532;2023-09-12T05:21:31;98309.55;;;10.55;53.07
60267;BME280;46125;61.360;-149.532;2023-09-12T05:24:00;98311.69;;;10.05;54.28
60267;BME280;46125;61.360;-149.532;2023-09-12T05:26:28;98317.21;;;10.27;52.70
60267;BME280;46125;61.360;-149.532;2023-09-12T05:28:58;98317.73;;;10.07;52.28
60267;BME280;46125;61.360;-149.532;2023-09-12T05:31:27;98318.46;;;10.00;52.04
60267;BME280;46125;61.360;-149.532;2023-09-12T05:33:56;98318.71;;;10.13;52.03
60267;BME280;46125;61.360;-149.532;2023-09-12T05:36:29;98320.99;;;10.10;52.05
60267;BME280;46125;61.360;-149.532;2023-09-12T05:38:58;98317.10;;;10.30;52.18
60267;BME280;46125;61.360;-149.532;2023-09-12T05:41:26;98321.10;;;10.06;53.38
60267;BME280;46125;61.360;-149.532;2023-09-12T05:43:55;98323.48;;;10.15;53.04
60267;BME280;46125;61.360;-149.532;2023-09-12T05:46:23;98322.54;;;10.14;52.82
60267;BME280;46125;61.360;-149.532;2023-09-12T05:48:52;98324.29;;;9.69;52.95
60267;BME280;46125;61.360;-149.532;2023-09-12T05:51:20;98323.40;;;9.89;52.67
60267;BME280;46125;61.360;-149.532;2023-09-12T05:53:49;98328.60;;;9.72;52.60
60267;BME280;46125;61.360;-149.532;2023-09-12T05:56:17;98329.60;;;9.94;52.50
60267;BME280;46125;61.360;-149.532;2023-09-12T05:58:46;98332.47;;;9.92;52.36
60267;BME280;46125;61.360;-149.532;2023-09-12T06:01:19;98341.98;;;9.00;54.83
60267;BME280;46125;61.360;-149.532;2023-09-12T06:03:48;98338.40;;;9.93;53.18
60267;BME280;46125;61.360;-149.532;2023-09-12T06:06:16;98340.49;;;9.44;54.20
60267;BME280;46125;61.360;-149.532;2023-09-12T06:08:45;98342.30;;;9.45;53.25
60267;BME280;46125;61.360;-149.532;2023-09-12T06:11:18;98342.44;;;9.74;53.01
60267;BME280;46125;61.360;-149.532;2023-09-12T06:13:47;98343.74;;;9.63;53.40
60267;BME280;46125;61.360;-149.532;2023-09-12T06:16:16;98341.77;;;9.73;53.30
60267;BME280;46125;61.360;-149.532;2023-09-12T06:18:45;98343.81;;;9.58;52.97
60267;BME280;46125;61.360;-149.532;2023-09-12T06:21:14;98344.99;;;9.48;52.78
60267;BME280;46125;61.360;-149.532;2023-09-12T06:23:42;98347.49;;;10.07;52.72
60267;BME280;46125;61.360;-149.532;2023-09-12T06:26:10;98349.38;;;10.12;52.43
60267;BME280;46125;61.360;-149.532;2023-09-12T06:28:44;98351.61;;;9.61;52.75
60267;BME280;46125;61.360;-149.532;2023-09-12T06:31:13;98356.57;;;8.50;54.52
60267;BME280;46125;61.360;-149.532;2023-09-12T06:33:42;98354.37;;;9.76;52.37
60267;BME280;46125;61.360;-149.532;2023-09-12T06:36:11;98354.24;;;9.28;52.00
60267;BME280;46125;61.360;-149.532;2023-09-12T06:38:40;98355.71;;;9.58;53.54
60267;BME280;46125;61.360;-149.532;2023-09-12T06:41:08;98355.26;;;9.28;54.70
60267;BME280;46125;61.360;-149.532;2023-09-12T06:43:37;98352.45;;;9.57;53.32
60267;BME280;46125;61.360;-149.532;2023-09-12T06:46:05;98353.57;;;9.73;52.49
60267;BME280;46125;61.360;-149.532;2023-09-12T06:48:34;98358.30;;;8.94;54.93
60267;BME280;46125;61.360;-149.532;2023-09-12T06:51:07;98358.21;;;9.34;53.63
60267;BME280;46125;61.360;-149.532;2023-09-12T06:53:36;98358.38;;;9.50;53.09
60267;BME280;46125;61.360;-149.532;2023-09-12T06:56:05;98358.78;;;9.59;52.60
60267;BME280;46125;61.360;-149.532;2023-09-12T06:58:38;98360.60;;;9.62;52.37
60267;BME280;46125;61.360;-149.532;2023-09-12T07:01:07;98363.65;;;9.27;52.50
60267;BME280;46125;61.360;-149.532;2023-09-12T07:03:36;98368.43;;;9.21;52.53
60267;BME280;46125;61.360;-149.532;2023-09-12T07:06:05;98370.25;;;9.25;52.44
60267;BME280;46125;61.360;-149.532;2023-09-12T07:08:33;98371.12;;;9.51;52.36
60267;BME280;46125;61.360;-149.532;2023-09-12T07:11:01;98370.36;;;9.56;52.34
60267;BME280;46125;61.360;-149.532;2023-09-12T07:13:30;98375.02;;;9.40;53.01
60267;BME280;46125;61.360;-149.532;2023-09-12T07:15:59;98375.12;;;8.93;53.92
60267;BME280;46125;61.360;-149.532;2023-09-12T07:18:27;98375.68;;;8.97;54.01
60267;BME280;46125;61.360;-149.532;2023-09-12T07:21:00;98376.49;;;8.54;55.07
60267;BME280;46125;61.360;-149.532;2023-09-12T07:23:29;98379.80;;;9.36;53.71
60267;BME280;46125;61.360;-149.532;2023-09-12T07:25:58;98379.12;;;9.27;53.32
60267;BME280;46125;61.360;-149.532;2023-09-12T07:28:27;98373.00;;;9.12;53.38
60267;BME280;46125;61.360;-149.532;2023-09-12T07:30:55;98375.09;;;9.50;53.01
60267;BME280;46125;61.360;-149.532;2023-09-12T07:33:23;98374.37;;;9.05;52.70
60267;BME280;46125;61.360;-149.532;2023-09-12T07:35:53;98375.19;;;9.40;53.30
60267;BME280;46125;61.360;-149.532;2023-09-12T07:38:22;98379.15;;;9.23;52.79
60267;BME280;46125;61.360;-149.532;2023-09-12T07:40:50;98380.25;;;8.99;52.50
60267;BME280;46125;61.360;-149.532;2023-09-12T07:43:19;98378.80;;;9.25;52.36
60267;BME280;46125;61.360;-149.532;2023-09-12T07:45:49;98380.69;;;9.63;52.64
60267;BME280;46125;61.360;-149.532;2023-09-12T07:48:17;98381.83;;;9.17;52.47
60267;BME280;46125;61.360;-149.532;2023-09-12T07:50:45;98383.57;;;8.90;53.72
60267;BME280;46125;61.360;-149.532;2023-09-12T07:53:14;98385.44;;;8.94;53.05
60267;BME280;46125;61.360;-149.532;2023-09-12T07:55:42;98386.29;;;9.47;52.76
60267;BME280;46125;61.360;-149.532;2023-09-12T07:58:11;98386.49;;;9.01;52.80
60267;BME280;46125;61.360;-149.532;2023-09-12T08:00:39;98390.54;;;8.00;56.21
60267;BME280;46125;61.360;-149.532;2023-09-12T08:03:08;98407.06;;;8.70;55.39
60267;BME280;46125;61.360;-149.532;2023-09-12T08:05:36;98404.57;;;8.37;56.14
60267;BME280;46125;61.360;-149.532;2023-09-12T08:08:05;98413.63;;;7.72;59.12
60267;BME280;46125;61.360;-149.532;2023-09-12T08:10:34;98415.63;;;7.81;58.40
60267;BME280;46125;61.360;-149.532;2023-09-12T08:13:02;98415.70;;;7.70;58.46
60267;BME280;46125;61.360;-149.532;2023-09-12T08:15:30;98416.61;;;8.13;57.63
60267;BME280;46125;61.360;-149.532;2023-09-12T08:17:59;98419.93;;;8.54;56.49
60267;BME280;46125;61.360;-149.532;2023-09-12T08:20:27;98423.45;;;8.62;55.68
60267;BME280;46125;61.360;-149.532;2023-09-12T08:22:56;98418.91;;;8.79;55.05
60267;BME280;46125;61.360;-149.532;2023-09-12T08:25:24;98423.42;;;9.16;54.37
60267;BME280;46125;61.360;-149.532;2023-09-12T08:27:53;98420.27;;;8.90;54.29
60267;BME280;46125;61.360;-149.532;2023-09-12T08:30:21;98420.80;;;8.45;54.30
60267;BME280;46125;61.360;-149.532;2023-09-12T08:32:50;98422.01;;;8.67;54.84
60267;BME280;46125;61.360;-149.532;2023-09-12T08:35:18;98419.36;;;8.26;55.62
60267;BME280;46125;61.360;-149.532;2023-09-12T08:37:48;98420.25;;;8.61;55.37
60267;BME280;46125;61.360;-149.532;2023-09-12T08:40:16;98422.44;;;8.52;55.05
60267;BME280;46125;61.360;-149.532;2023-09-12T08:42:45;98425.23;;;8.59;54.32
60267;BME280;46125;61.360;-149.532;2023-09-12T08:45:15;98428.25;;;8.46;54.17
60267;BME280;46125;61.360;-149.532;2023-09-12T08:47:44;98432.21;;;8.51;54.45
60267;BME280;46125;61.360;-149.532;2023-09-12T08:50:14;98436.70;;;8.78;54.30
60267;BME280;46125;61.360;-149.532;2023-09-12T08:52:45;98437.39;;;8.11;55.76
60267;BME280;46125;61.360;-149.532;2023-09-12T08:55:14;98438.18;;;8.70;54.43
60267;BME280;46125;61.360;-149.532;2023-09-12T08:57:44;98442.77;;;8.82;53.97
60267;BME280;46125;61.360;-149.532;2023-09-12T09:00:15;98442.35;;;8.47;54.59
60267;BME280;46125;61.360;-149.532;2023-09-12T09:02:44;98442.85;;;8.49;54.43
60267;BME280;46125;61.360;-149.532;2023-09-12T09:05:13;98445.52;;;8.71;53.83
60267;BME280;46125;61.360;-149.532;2023-09-12T09:07:43;98446.93;;;8.72;53.94
60267;BME280;46125;61.360;-149.532;2023-09-12T09:10:16;98450.12;;;8.20;55.52
60267;BME280;46125;61.360;-149.532;2023-09-12T09:12:46;98453.91;;;7.94;56.17
60267;BME280;46125;61.360;-149.532;2023-09-12T09:15:22;98454.91;;;8.37;56.15
60267;BME280;46125;61.360;-149.532;2023-09-12T09:17:52;98458.29;;;8.24;55.84
60267;BME280;46125;61.360;-149.532;2023-09-12T09:20:26;98459.43;;;8.26;56.11
60267;BME280;46125;61.360;-149.532;2023-09-12T09:22:59;98457.27;;;8.54;55.42
60267;BME280;46125;61.360;-149.532;2023-09-12T09:25:27;98458.92;;;8.67;55.25
60267;BME280;46125;61.360;-149.532;2023-09-12T09:27:55;98461.11;;;8.41;55.24
60267;BME280;46125;61.360;-149.532;2023-09-12T09:30:41;98461.85;;;8.58;55.60
60267;BME280;46125;61.360;-149.532;2023-09-12T09:33:09;98460.14;;;8.77;55.41
60267;BME280;46125;61.360;-149.532;2023-09-12T09:35:38;98464.10;;;8.30;56.56
60267;BME280;46125;61.360;-149.532;2023-09-12T09:38:09;98465.82;;;8.61;55.17
60267;BME280;46125;61.360;-149.532;2023-09-12T09:40:38;98464.35;;;9.00;54.66
60267;BME280;46125;61.360;-149.532;2023-09-12T09:43:06;98468.44;;;8.16;56.74
60267;BME280;46125;61.360;-149.532;2023-09-12T09:45:43;98467.52;;;8.76;55.25
60267;BME280;46125;61.360;-149.532;2023-09-12T09:48:19;98471.79;;;8.73;55.05
60267;BME280;46125;61.360;-149.532;2023-09-12T09:50:48;98471.56;;;8.31;55.12
60267;BME280;46125;61.360;-149.532;2023-09-12T09:53:16;98472.46;;;8.86;54.89
60267;BME280;46125;61.360;-149.532;2023-09-12T09:55:44;98475.60;;;8.60;55.07
60267;BME280;46125;61.360;-149.532;2023-09-12T09:58:16;98474.09;;;8.91;55.20
60267;BME280;46125;61.360;-149.532;2023-09-12T10:00:44;98474.40;;;8.78;54.86
60267;BME280;46125;61.360;-149.532;2023-09-12T10:03:13;98480.24;;;7.89;55.96
60267;BME280;46125;61.360;-149.532;2023-09-12T10:05:46;98482.52;;;8.83;55.70
60267;BME280;46125;61.360;-149.532;2023-09-12T10:08:20;98480.48;;;8.86;54.97
60267;BME280;46125;61.360;-149.532;2023-09-12T10:10:50;98485.50;;;8.98;54.75
60267;BME280;46125;61.360;-149.532;2023-09-12T10:13:19;98484.95;;;8.82;54.43
60267;BME280;46125;61.360;-149.532;2023-09-12T10:15:49;98485.88;;;9.37;54.05
60267;BME280;46125;61.360;-149.532;2023-09-12T10:18:22;98482.54;;;9.22;53.92
60267;BME280;46125;61.360;-149.532;2023-09-12T10:20:55;98483.26;;;9.27;53.82
60267;BME280;46125;61.360;-149.532;2023-09-12T10:23:30;98484.11;;;9.18;53.58
60267;BME280;46125;61.360;-149.532;2023-09-12T10:26:03;98485.42;;;9.60;53.27
60267;BME280;46125;61.360;-149.532;2023-09-12T10:28:32;98479.95;;;9.49;53.02
60267;BME280;46125;61.360;-149.532;2023-09-12T10:31:02;98478.59;;;9.39;52.96
60267;BME280;46125;61.360;-149.532;2023-09-12T10:33:32;98475.40;;;9.31;53.07
60267;BME280;46125;61.360;-149.532;2023-09-12T10:36:01;98477.26;;;9.44;53.43
60267;BME280;46125;61.360;-149.532;2023-09-12T10:38:33;98478.10;;;9.29;53.62
60267;BME280;46125;61.360;-149.532;2023-09-12T10:41:05;98478.15;;;9.44;53.50
60267;BME280;46125;61.360;-149.532;2023-09-12T10:43:36;98477.34;;;9.67;52.86
60267;BME280;46125;61.360;-149.532;2023-09-12T10:46:05;98472.43;;;9.80;52.23
60267;BME280;46125;61.360;-149.532;2023-09-12T10:48:34;98472.20;;;9.73;52.89
60267;BME280;46125;61.360;-149.532;2023-09-12T10:51:03;98472.14;;;9.90;52.55
60267;BME280;46125;61.360;-149.532;2023-09-12T10:53:32;98471.81;;;9.72;52.69
60267;BME280;46125;61.360;-149.532;2023-09-12T10:56:15;98470.05;;;10.00;52.92
60267;BME280;46125;61.360;-149.532;2023-09-12T10:59:15;98469.35;;;9.67;52.71
60267;BME280;46125;61.360;-149.532;2023-09-12T11:01:45;98464.23;;;10.12;51.85
60267;BME280;46125;61.360;-149.532;2023-09-12T11:04:46;98463.27;;;10.54;51.39
60267;BME280;46125;61.360;-149.532;2023-09-12T11:07:46;98463.59;;;10.13;51.44
60267;BME280;46125;61.360;-149.532;2023-09-12T11:10:19;98463.05;;;10.29;51.34
60267;BME280;46125;61.360;-149.532;2023-09-12T11:12:49;98463.70;;;10.11;51.40
60267;BME280;46125;61.360;-149.532;2023-09-12T11:15:19;98467.04;;;10.23;51.51
60267;BME280;46125;61.360;-149.532;2023-09-12T11:17:49;98470.33;;;10.11;52.25
60267;BME280;46125;61.360;-149.532;2023-09-12T11:20:17;98468.92;;;10.31;51.94
60267;BME280;46125;61.360;-149.532;2023-09-12T11:22:46;98467.87;;;10.38;51.70
60267;BME280;46125;61.360;-149.532;2023-09-12T11:25:19;98469.69;;;10.44;51.46
60267;BME280;46125;61.360;-149.532;2023-09-12T11:28:04;98468.59;;;10.46;51.18
60267;BME280;46125;61.360;-149.532;2023-09-12T11:30:32;98466.90;;;10.58;51.02
60267;BME280;46125;61.360;-149.532;2023-09-12T11:33:02;98465.34;;;10.51;51.34
60267;BME280;46125;61.360;-149.532;2023-09-12T11:35:37;98463.77;;;10.56;51.54
60267;BME280;46125;61.360;-149.532;2023-09-12T11:38:09;98466.26;;;10.36;51.47
60267;BME280;46125;61.360;-149.532;2023-09-12T11:40:46;98468.46;;;10.42;51.34
60267;BME280;46125;61.360;-149.532;2023-09-12T11:43:23;98473.51;;;10.40;52.12
60267;BME280;46125;61.360;-149.532;2023-09-12T11:45:52;98472.65;;;10.71;51.62
60267;BME280;46125;61.360;-149.532;2023-09-12T11:48:20;98471.61;;;10.50;51.54
60267;BME280;46125;61.360;-149.532;2023-09-12T11:50:53;98471.30;;;10.78;51.42
60267;BME280;46125;61.360;-149.532;2023-09-12T11:53:23;98469.06;;;10.76;51.46
60267;BME280;46125;61.360;-149.532;2023-09-12T11:55:55;98470.54;;;10.49;51.19
60267;BME280;46125;61.360;-149.532;2023-09-12T11:58:25;98469.43;;;10.70;51.02
60267;BME280;46125;61.360;-149.532;2023-09-12T12:00:55;98468.71;;;10.54;51.23
60267;BME280;46125;61.360;-149.532;2023-09-12T12:03:25;98469.11;;;10.90;51.39
60267;BME280;46125;61.360;-149.532;2023-09-12T12:05:55;98468.20;;;10.35;51.29
60267;BME280;46125;61.360;-149.532;2023-09-12T12:08:24;98471.07;;;10.21;51.32
60267;BME280;46125;61.360;-149.532;2023-09-12T12:10:53;98471.83;;;10.16;51.17
60267;BME280;46125;61.360;-149.532;2023-09-12T12:13:22;98471.87;;;10.02;51.33
60267;BME280;46125;61.360;-149.532;2023-09-12T12:15:50;98469.53;;;9.88;51.54
60267;BME280;46125;61.360;-149.532;2023-09-12T12:18:19;98470.67;;;10.01;51.58
60267;BME280;46125;61.360;-149.532;2023-09-12T12:20:47;98472.10;;;9.71;51.37
60267;BME280;46125;61.360;-149.532;2023-09-12T12:23:16;98469.92;;;9.80;51.45
60267;BME280;46125;61.360;-149.532;2023-09-12T12:25:44;98467.90;;;9.63;51.75
60267;BME280;46125;61.360;-149.532;2023-09-12T12:28:12;98472.75;;;9.72;52.19
60267;BME280;46125;61.360;-149.532;2023-09-12T12:30:41;98471.81;;;9.33;52.11
60267;BME280;46125;61.360;-149.532;2023-09-12T12:33:10;98472.89;;;9.19;53.45
60267;BME280;46125;61.360;-149.532;2023-09-12T12:35:38;98476.84;;;9.23;54.44
60267;BME280;46125;61.360;-149.532;2023-09-12T12:38:06;98476.92;;;9.09;54.42
60267;BME280;46125;61.360;-149.532;2023-09-12T12:40:39;98473.17;;;9.25;54.62
60267;BME280;46125;61.360;-149.532;2023-09-12T12:43:16;98466.86;;;9.04;54.15
60267;BME280;46125;61.360;-149.532;2023-09-12T12:45:54;98464.04;;;9.18;53.87
60267;BME280;46125;61.360;-149.532;2023-09-12T12:48:30;98459.89;;;9.53;53.57
60267;BME280;46125;61.360;-149.532;2023-09-12T12:50:59;98465.36;;;9.32;53.77